Time,TemperatureF,DewpointF,PressureIn,WindDirection,WindDirectionDegrees,WindSpeedMPH,WindSpeedGustMPH,Humidity,HourlyPrecipIn,Conditions,Clouds,dailyrainin,SoftwareType,DateUTC
2013-05-01 00:03:00,46.0,34.0,30.33,NE,45,0.0,0.0,62,0.00,,,0.00,,2013-05-01 04:03:00,
2013-05-01 00:12:00,46.0,34.0,30.33,NE,45,0.0,0.0,62,0.00,,,0.00,,2013-05-01 04:12:00,
2013-05-01 00:22:00,45.0,33.0,30.32,NE,45,0.0,1.0,62,0.00,,,0.00,,2013-05-01 04:22:00,
2013-05-01 00:32:00,45.0,35.0,30.33,NE,44,0.0,0.0,69,0.00,,,0.00,,2013-05-01 04:32:00,
2013-05-01 00:43:00,45.0,35.0,30.33,NE,44,0.0,0.0,69,0.00,,,0.00,,2013-05-01 04:43:00,
2013-05-01 00:52:00,44.0,34.0,30.34,NE,44,0.0,0.0,69,0.00,,,0.00,,2013-05-01 04:52:00,
2013-05-01 01:02:00,44.0,34.0,30.34,NE,44,0.0,0.0,69,0.00,,,0.00,,2013-05-01 05:02:00,
2013-05-01 01:12:00,44.0,34.0,30.34,NE,44,0.0,0.0,69,0.00,,,0.00,,2013-05-01 05:12:00,
2013-05-01 01:22:00,43.0,34.0,30.35,NNW,335,0.0,0.0,70,0.00,,,0.00,,2013-05-01 05:22:00,
2013-05-01 01:32:00,43.0,35.0,30.35,NNW,338,0.0,0.0,72,0.00,,,0.00,,2013-05-01 05:32:00,
2013-05-01 01:42:00,43.0,35.0,30.35,NNW,338,0.0,0.0,72,0.00,,,0.00,,2013-05-01 05:42:00,
2013-05-01 01:52:00,42.0,35.0,30.35,NNW,347,0.0,0.0,77,0.00,,,0.00,,2013-05-01 05:52:00,
2013-05-01 02:02:00,43.0,35.0,30.35,NNW,346,0.0,0.0,73,0.00,,,0.00,,2013-05-01 06:02:00,
2013-05-01 02:12:00,43.0,35.0,30.35,NNW,346,0.0,0.0,73,0.00,,,0.00,,2013-05-01 06:12:00,
2013-05-01 02:22:00,42.0,34.0,30.35,NNW,347,0.0,0.0,74,0.00,,,0.00,,2013-05-01 06:22:00,
2013-05-01 02:32:00,41.0,35.0,30.35,North,357,0.0,0.0,80,0.00,,,0.00,,2013-05-01 06:32:00,
2013-05-01 02:42:00,41.0,35.0,30.35,North,357,0.0,0.0,80,0.00,,,0.00,,2013-05-01 06:42:00,
2013-05-01 02:52:00,42.0,34.0,30.35,NNW,342,0.0,2.0,73,0.00,,,0.00,,2013-05-01 06:52:00,
2013-05-01 03:01:00,42.0,33.0,30.35,North,350,0.0,1.0,69,0.00,,,0.00,,2013-05-01 07:01:00,
2013-05-01 03:11:00,42.0,33.0,30.35,North,350,0.0,1.0,69,0.00,,,0.00,,2013-05-01 07:11:00,
2013-05-01 03:22:00,41.0,34.0,30.35,North,352,0.0,0.0,76,0.00,,,0.00,,2013-05-01 07:22:00,
2013-05-01 03:32:00,41.0,34.0,30.35,North,352,0.0,0.0,75,0.00,,,0.00,,2013-05-01 07:32:00,
2013-05-01 03:42:00,41.0,34.0,30.35,North,352,0.0,0.0,75,0.00,,,0.00,,2013-05-01 07:42:00,
2013-05-01 03:52:00,41.0,33.0,30.36,North,349,0.0,1.0,74,0.00,,,0.00,,2013-05-01 07:52:00,
2013-05-01 04:02:00,41.0,33.0,30.36,North,349,0.0,1.0,73,0.00,,,0.00,,2013-05-01 08:02:00,
2013-05-01 04:12:00,41.0,33.0,30.36,North,349,0.0,1.0,73,0.00,,,0.00,,2013-05-01 08:12:00,
2013-05-01 04:22:00,41.0,33.0,30.36,NNW,343,0.0,0.0,72,0.00,,,0.00,,2013-05-01 08:22:00,
2013-05-01 04:32:00,41.0,32.0,30.37,NNW,340,0.0,1.0,70,0.00,,,0.00,,2013-05-01 08:32:00,
2013-05-01 04:42:00,41.0,32.0,30.37,NNW,340,0.0,1.0,70,0.00,,,0.00,,2013-05-01 08:42:00,
2013-05-01 04:53:00,41.0,33.0,30.37,NNW,340,0.0,0.0,73,0.00,,,0.00,,2013-05-01 08:53:00,
2013-05-01 05:01:00,40.0,32.0,30.37,NNW,340,0.0,0.0,74,0.00,,,0.00,,2013-05-01 09:01:00,
2013-05-01 05:12:00,40.0,32.0,30.37,NNW,340,0.0,0.0,74,0.00,,,0.00,,2013-05-01 09:12:00,
2013-05-01 05:22:00,40.0,34.0,30.37,NNW,340,0.0,0.0,79,0.00,,,0.00,,2013-05-01 09:22:00,
2013-05-01 05:33:00,39.0,34.0,30.37,NNW,341,0.0,0.0,82,0.00,,,0.00,,2013-05-01 09:33:00,
2013-05-01 05:43:00,39.0,34.0,30.37,NNW,341,0.0,0.0,82,0.00,,,0.00,,2013-05-01 09:43:00,
2013-05-01 05:53:00,40.0,33.0,30.38,NNW,341,0.0,0.0,77,0.00,,,0.00,,2013-05-01 09:53:00,
2013-05-01 06:03:00,40.0,33.0,30.39,NNW,336,0.0,1.0,75,0.00,,,0.00,,2013-05-01 10:03:00,
2013-05-01 06:12:00,40.0,33.0,30.39,NNW,336,0.0,1.0,75,0.00,,,0.00,,2013-05-01 10:12:00,
2013-05-01 06:22:00,40.0,33.0,30.39,NNW,336,0.0,0.0,75,0.00,,,0.00,,2013-05-01 10:22:00,
2013-05-01 06:33:00,40.0,33.0,30.40,NNW,336,0.0,0.0,75,0.00,,,0.00,,2013-05-01 10:33:00,
2013-05-01 06:42:00,40.0,33.0,30.40,NNW,336,0.0,0.0,75,0.00,,,0.00,,2013-05-01 10:42:00,
2013-05-01 06:53:00,40.0,33.0,30.40,NNW,336,0.0,0.0,76,0.00,,,0.00,,2013-05-01 10:53:00,
2013-05-01 07:02:00,39.0,33.0,30.41,NNW,337,0.0,0.0,79,0.00,,,0.00,,2013-05-01 11:02:00,
2013-05-01 07:11:00,39.0,33.0,30.41,NNW,337,0.0,0.0,79,0.00,,,0.00,,2013-05-01 11:11:00,
2013-05-01 07:22:00,40.0,34.0,30.42,NNW,337,0.0,0.0,79,0.00,,,0.00,,2013-05-01 11:22:00,
2013-05-01 07:32:00,42.0,34.0,30.41,NNW,337,0.0,0.0,73,0.00,,,0.00,,2013-05-01 11:32:00,
2013-05-01 07:42:00,42.0,34.0,30.41,NNW,337,0.0,0.0,73,0.00,,,0.00,,2013-05-01 11:42:00,
2013-05-01 07:52:00,45.0,35.0,30.42,NNW,335,0.0,1.0,69,0.00,,,0.00,,2013-05-01 11:52:00,
2013-05-01 08:01:00,48.0,34.0,30.42,NNW,335,0.0,0.0,59,0.00,,,0.00,,2013-05-01 12:01:00,
2013-05-01 08:11:00,48.0,34.0,30.42,NNW,335,0.0,0.0,59,0.00,,,0.00,,2013-05-01 12:11:00,
2013-05-01 08:21:00,51.0,32.0,30.43,North,353,0.0,3.0,48,0.00,,,0.00,,2013-05-01 12:21:00,
2013-05-01 08:32:00,53.0,29.0,30.44,North,8,0.0,5.0,39,0.00,,,0.00,,2013-05-01 12:32:00,
2013-05-01 08:42:00,53.0,29.0,30.44,North,8,0.0,5.0,39,0.00,,,0.00,,2013-05-01 12:42:00,
2013-05-01 08:52:00,54.0,26.0,30.44,North,359,1.0,5.0,34,0.00,,,0.00,,2013-05-01 12:52:00,
2013-05-01 09:01:00,57.0,27.0,30.44,ESE,120,0.0,3.0,32,0.00,,,0.00,,2013-05-01 13:01:00,
2013-05-01 09:11:00,57.0,27.0,30.44,ESE,120,0.0,3.0,32,0.00,,,0.00,,2013-05-01 13:11:00,
2013-05-01 09:22:00,57.0,27.0,30.44,ESE,106,0.0,5.0,31,0.00,,,0.00,,2013-05-01 13:22:00,
2013-05-01 09:32:00,59.0,27.0,30.44,South,169,1.0,7.0,29,0.00,,,0.00,,2013-05-01 13:32:00,
2013-05-01 09:42:00,59.0,27.0,30.44,South,169,1.0,7.0,29,0.00,,,0.00,,2013-05-01 13:42:00,
2013-05-01 09:52:00,61.0,28.0,30.44,SSE,160,0.0,5.0,28,0.00,,,0.00,,2013-05-01 13:52:00,
2013-05-01 10:02:00,61.0,28.0,30.44,NE,53,3.0,7.0,28,0.00,,,0.00,,2013-05-01 14:02:00,
2013-05-01 10:11:00,61.0,28.0,30.44,NE,53,3.0,7.0,28,0.00,,,0.00,,2013-05-01 14:11:00,
2013-05-01 10:22:00,62.0,28.0,30.43,NW,316,3.0,9.0,27,0.00,,,0.00,,2013-05-01 14:22:00,
2013-05-01 10:32:00,62.0,26.0,30.44,SE,131,3.0,9.0,25,0.00,,,0.00,,2013-05-01 14:32:00,
2013-05-01 10:42:00,62.0,26.0,30.44,SE,131,3.0,9.0,25,0.00,,,0.00,,2013-05-01 14:42:00,
2013-05-01 10:52:00,62.0,24.0,30.44,NNE,22,2.0,7.0,23,0.00,,,0.00,,2013-05-01 14:52:00,
2013-05-01 11:01:00,64.0,26.0,30.44,North,4,2.0,7.0,24,0.00,,,0.00,,2013-05-01 15:01:00,
2013-05-01 11:11:00,64.0,26.0,30.44,North,4,2.0,7.0,24,0.00,,,0.00,,2013-05-01 15:11:00,
2013-05-01 11:22:00,63.0,26.0,30.44,ESE,115,2.0,9.0,24,0.00,,,0.00,,2013-05-01 15:22:00,
2013-05-01 11:33:00,64.0,24.0,30.44,SSE,155,2.0,11.0,22,0.00,,,0.00,,2013-05-01 15:33:00,
2013-05-01 11:43:00,64.0,24.0,30.44,SSE,155,2.0,11.0,22,0.00,,,0.00,,2013-05-01 15:43:00,
2013-05-01 11:53:00,65.0,28.0,30.43,SSE,155,2.0,8.0,25,0.00,,,0.00,,2013-05-01 15:53:00,
2013-05-01 12:03:00,65.0,27.0,30.43,ESE,117,3.0,8.0,24,0.00,,,0.00,,2013-05-01 16:03:00,
2013-05-01 12:12:00,65.0,27.0,30.43,ESE,117,3.0,8.0,24,0.00,,,0.00,,2013-05-01 16:12:00,
2013-05-01 12:22:00,65.0,25.0,30.43,ENE,63,3.0,8.0,22,0.00,,,0.00,,2013-05-01 16:22:00,
2013-05-01 12:32:00,66.0,27.0,30.43,East,79,2.0,9.0,23,0.00,,,0.00,,2013-05-01 16:32:00,
2013-05-01 12:42:00,66.0,27.0,30.43,East,79,2.0,9.0,23,0.00,,,0.00,,2013-05-01 16:42:00,
2013-05-01 12:53:00,68.0,30.0,30.43,South,175,1.0,5.0,24,0.00,,,0.00,,2013-05-01 16:53:00,
2013-05-01 13:02:00,67.0,32.0,30.43,ESE,121,1.0,7.0,27,0.00,,,0.00,,2013-05-01 17:02:00,
2013-05-01 13:12:00,67.0,32.0,30.43,ESE,121,1.0,7.0,27,0.00,,,0.00,,2013-05-01 17:12:00,
2013-05-01 13:22:00,66.0,34.0,30.43,ESE,105,3.0,9.0,30,0.00,,,0.00,,2013-05-01 17:22:00,
2013-05-01 13:32:00,67.0,37.0,30.43,WNW,283,2.0,8.0,33,0.00,,,0.00,,2013-05-01 17:32:00,
2013-05-01 13:42:00,67.0,37.0,30.43,WNW,283,2.0,8.0,33,0.00,,,0.00,,2013-05-01 17:42:00,
2013-05-01 13:52:00,65.0,37.0,30.43,NE,41,3.0,10.0,36,0.00,,,0.00,,2013-05-01 17:52:00,
2013-05-01 14:01:00,66.0,34.0,30.43,ESE,107,6.0,14.0,31,0.00,,,0.00,,2013-05-01 18:01:00,
2013-05-01 14:11:00,66.0,34.0,30.43,ESE,107,6.0,14.0,31,0.00,,,0.00,,2013-05-01 18:11:00,
2013-05-01 14:22:00,65.0,34.0,30.42,ESE,120,4.0,16.0,32,0.00,,,0.00,,2013-05-01 18:22:00,
2013-05-01 14:32:00,66.0,28.0,30.42,SSE,166,3.0,12.0,24,0.00,,,0.00,,2013-05-01 18:32:00,
2013-05-01 14:42:00,66.0,28.0,30.42,SSE,166,3.0,12.0,24,0.00,,,0.00,,2013-05-01 18:42:00,
2013-05-01 14:52:00,68.0,32.0,30.42,ESE,108,2.0,6.0,26,0.00,,,0.00,,2013-05-01 18:52:00,
2013-05-01 15:02:00,68.0,33.0,30.42,ESE,105,3.0,12.0,27,0.00,,,0.00,,2013-05-01 19:02:00,
2013-05-01 15:11:00,68.0,33.0,30.42,ESE,105,3.0,12.0,27,0.00,,,0.00,,2013-05-01 19:11:00,
2013-05-01 15:22:00,67.0,32.0,30.42,East,97,4.0,9.0,27,0.00,,,0.00,,2013-05-01 19:22:00,
2013-05-01 15:32:00,68.0,35.0,30.41,East,101,1.0,7.0,29,0.00,,,0.00,,2013-05-01 19:32:00,
2013-05-01 15:43:00,68.0,35.0,30.41,East,101,1.0,7.0,29,0.00,,,0.00,,2013-05-01 19:43:00,
2013-05-01 15:52:00,69.0,35.0,30.41,SE,124,0.0,6.0,28,0.00,,,0.00,,2013-05-01 19:52:00,
2013-05-01 16:02:00,68.0,34.0,30.41,SE,127,1.0,7.0,28,0.00,,,0.00,,2013-05-01 20:02:00,
2013-05-01 16:11:00,68.0,34.0,30.41,SE,127,1.0,7.0,28,0.00,,,0.00,,2013-05-01 20:11:00,
2013-05-01 16:22:00,68.0,35.0,30.41,ESE,105,4.0,10.0,29,0.00,,,0.00,,2013-05-01 20:22:00,
2013-05-01 16:32:00,67.0,37.0,30.41,NE,36,1.0,9.0,33,0.00,,,0.00,,2013-05-01 20:32:00,
2013-05-01 16:42:00,67.0,37.0,30.41,NE,36,1.0,9.0,33,0.00,,,0.00,,2013-05-01 20:42:00,
2013-05-01 16:52:00,68.0,37.0,30.41,SE,135,3.0,8.0,32,0.00,,,0.00,,2013-05-01 20:52:00,
2013-05-01 17:01:00,67.0,38.0,30.41,SW,215,3.0,10.0,35,0.00,,,0.00,,2013-05-01 21:01:00,
2013-05-01 17:11:00,67.0,38.0,30.41,SW,215,3.0,10.0,35,0.00,,,0.00,,2013-05-01 21:11:00,
2013-05-01 17:22:00,67.0,41.0,30.41,East,84,3.0,11.0,39,0.00,,,0.00,,2013-05-01 21:22:00,
2013-05-01 17:32:00,66.0,42.0,30.41,South,184,5.0,13.0,42,0.00,,,0.00,,2013-05-01 21:32:00,
2013-05-01 17:43:00,66.0,42.0,30.41,South,184,5.0,13.0,42,0.00,,,0.00,,2013-05-01 21:43:00,
2013-05-01 17:53:00,66.0,43.0,30.42,WSW,246,2.0,11.0,44,0.00,,,0.00,,2013-05-01 21:53:00,
2013-05-01 18:03:00,65.0,43.0,30.42,WSW,250,6.0,13.0,44,0.00,,,0.00,,2013-05-01 22:03:00,
2013-05-01 18:12:00,65.0,43.0,30.42,WSW,250,6.0,13.0,44,0.00,,,0.00,,2013-05-01 22:12:00,
2013-05-01 18:23:00,64.0,42.0,30.42,West,263,5.0,11.0,45,0.00,,,0.00,,2013-05-01 22:23:00,
2013-05-01 18:33:00,64.0,42.0,30.43,SE,124,7.0,11.0,45,0.00,,,0.00,,2013-05-01 22:33:00,
2013-05-01 18:42:00,64.0,42.0,30.43,SE,124,7.0,11.0,45,0.00,,,0.00,,2013-05-01 22:42:00,
2013-05-01 18:53:00,64.0,43.0,30.43,West,266,2.0,13.0,47,0.00,,,0.00,,2013-05-01 22:53:00,
2013-05-01 19:02:00,63.0,43.0,30.43,SSW,203,4.0,12.0,48,0.00,,,0.00,,2013-05-01 23:02:00,
2013-05-01 19:12:00,63.0,43.0,30.43,SSW,203,4.0,12.0,48,0.00,,,0.00,,2013-05-01 23:12:00,
2013-05-01 19:21:00,62.0,43.0,30.43,West,266,2.0,11.0,49,0.00,,,0.00,,2013-05-01 23:21:00,
2013-05-01 19:32:00,62.0,43.0,30.43,West,266,5.0,11.0,50,0.00,,,0.00,,2013-05-01 23:32:00,
2013-05-01 19:42:00,62.0,43.0,30.43,West,266,5.0,11.0,50,0.00,,,0.00,,2013-05-01 23:42:00,
2013-05-01 19:52:00,60.0,42.0,30.44,WSW,253,4.0,12.0,52,0.00,,,0.00,,2013-05-01 23:52:00,
2013-05-01 20:01:00,59.0,42.0,30.45,West,261,2.0,10.0,54,0.00,,,0.00,,2013-05-02 00:01:00,
2013-05-01 20:11:00,59.0,42.0,30.45,West,261,2.0,10.0,54,0.00,,,0.00,,2013-05-02 00:11:00,
2013-05-01 20:22:00,58.0,42.0,30.45,SW,230,2.0,5.0,56,0.00,,,0.00,,2013-05-02 00:22:00,
2013-05-01 20:32:00,58.0,43.0,30.45,SW,233,0.0,6.0,57,0.00,,,0.00,,2013-05-02 00:32:00,
2013-05-01 20:42:00,58.0,43.0,30.45,SW,233,0.0,6.0,57,0.00,,,0.00,,2013-05-02 00:42:00,
2013-05-01 20:52:00,57.0,42.0,30.46,SSE,154,1.0,4.0,58,0.00,,,0.00,,2013-05-02 00:52:00,
2013-05-01 21:01:00,56.0,42.0,30.46,WSW,248,0.0,3.0,60,0.00,,,0.00,,2013-05-02 01:01:00,
2013-05-01 21:11:00,56.0,42.0,30.46,WSW,248,0.0,3.0,60,0.00,,,0.00,,2013-05-02 01:11:00,
2013-05-01 21:22:00,55.0,42.0,30.47,West,265,0.0,0.0,62,0.00,,,0.00,,2013-05-02 01:22:00,
2013-05-01 21:32:00,55.0,43.0,30.47,WSW,257,0.0,1.0,64,0.00,,,0.00,,2013-05-02 01:32:00,
2013-05-01 21:42:00,55.0,43.0,30.47,WSW,257,0.0,1.0,64,0.00,,,0.00,,2013-05-02 01:42:00,
2013-05-01 21:52:00,54.0,43.0,30.47,WSW,243,0.0,0.0,66,0.00,,,0.00,,2013-05-02 01:52:00,
2013-05-01 22:02:00,54.0,43.0,30.47,SW,226,0.0,3.0,67,0.00,,,0.00,,2013-05-02 02:02:00,
2013-05-01 22:12:00,54.0,43.0,30.47,SW,226,0.0,3.0,67,0.00,,,0.00,,2013-05-02 02:12:00,
2013-05-01 22:21:00,53.0,43.0,30.47,SW,225,0.0,0.0,69,0.00,,,0.00,,2013-05-02 02:21:00,
2013-05-01 22:32:00,52.0,43.0,30.48,SW,225,0.0,0.0,71,0.00,,,0.00,,2013-05-02 02:32:00,
2013-05-01 22:42:00,52.0,43.0,30.48,SW,225,0.0,0.0,71,0.00,,,0.00,,2013-05-02 02:42:00,
2013-05-01 22:51:00,52.0,43.0,30.48,SW,225,0.0,0.0,71,0.00,,,0.00,,2013-05-02 02:51:00,
2013-05-01 23:01:00,50.0,43.0,30.47,SE,139,0.0,1.0,76,0.00,,,0.00,,2013-05-02 03:01:00,
2013-05-01 23:11:00,50.0,43.0,30.47,SE,139,0.0,1.0,76,0.00,,,0.00,,2013-05-02 03:11:00,
2013-05-01 23:22:00,49.0,43.0,30.47,SE,137,0.0,0.0,80,0.00,,,0.00,,2013-05-02 03:22:00,
2013-05-01 23:33:00,49.0,44.0,30.47,SE,137,0.0,0.0,83,0.00,,,0.00,,2013-05-02 03:33:00,
2013-05-01 23:43:00,49.0,44.0,30.47,SE,137,0.0,0.0,83,0.00,,,0.00,,2013-05-02 03:43:00,
2013-05-01 23:53:00,48.0,43.0,30.48,SE,135,0.0,0.0,83,0.00,,,0.00,,2013-05-02 03:53:00,